Terminal Aerodrome Forecast
Issued by NWS Charleston, WV

Current Version | Previous Version | Text Only | Print | Product List | Glossary Off
Versions: 1 2 3 4 5 6 7 8 9 10 11 12 13 14 15 16 17 18 19 20 21 22 23 24 25 26 27 28

000
FTUS41 KRLX 250500
TAFPKB
TAF
KPKB 250535Z 2506/2606 10004KT P6SM -RA BKN080
     FM250900 17008KT P6SM OVC060
     FM251600 21010G18KT P6SM VCSH BKN035
     FM251900 22005KT P6SM BKN045=

USA.gov is the U.S. government's official web portal to all federal, state and local government web resources and services.